Graceful Lady — 00 — position and weather

sailwx.info

Track history (hours):
 
Tides and Currents Weather Stations Pressure Air Temp Water Temp Dewpoint Dewpoint Depression Visibility Wind Speed Wind Dir Waves Ship Positions

Graceful Lady

Last reported at 2016-Jun-27 12:33 UTC. Time now 2016-Jun-27 13:11 UTC.
Position N 31°32' E 121°20'.

Length 6 m.

Type: Pollution control. MMSI: 316014038.

Date/timePositionNaut miles runAvg speedWind from/ knotsBaromVisibWave heightAir tempDewpointWater temp
2016-Jun-27 12:33N 31°32' E 121°20'46069001.1
2016-Jun-27 12:33N 24°24' E 118°09'7 7.1
2016-Jun-27 11:33N 24°25' E 118°02'461127780.6
2016-Jun-27 11:33N 31°32' E 121°20'0 0.1
2016-Jun-27 10:33N 31°32' E 121°20'0 0.0
2016-Jun-27 09:33N 31°32' E 121°20'15191.3
2016-Jun-27 09:29N 31°43' E 121°08'4712620.5
2016-Jun-27 09:18N 24°26' E 117°51'465624.7
2016-Jun-27 08:33N 31°32' E 121°20'9139.1
2016-Jun-27 08:29N 31°40' E 121°13'910.0
2016-Jun-27 07:33N 31°32' E 121°20'0 0.0
2016-Jun-27 06:33N 31°32' E 121°20'223.9
2016-Jun-27 06:27N 31°32' E 121°23'2 2.7
2016-Jun-27 05:33N 31°32' E 121°20'0 0.0
2016-Jun-27 04:33N 31°32' E 121°20'4651800.4
2016-Jun-27 04:18N 24°26' E 117°51'465625.4
2016-Jun-27 03:33N 31°33' E 121°20'6 5.8
2016-Jun-27 02:33N 31°38' E 121°15'7 6.2
2016-Jun-27 01:30N 31°42' E 121°09'5 4.9
2016-Jun-27 00:32N 31°45' E 121°05'4713469.0
2016-Jun-27 00:24N 24°26' E 117°51'471520.2
2016-Jun-26 23:29N 31°46' E 121°00'6 3.0
2016-Jun-26 21:25N 31°50' E 120°54'129141.6
2016-Jun-26 20:30N 29°54' E 121°59'0 0.0
2016-Jun-26 19:25N 29°54' E 121°59'0 0.0
2016-Jun-26 16:29N 29°54' E 121°59'3962049.5
2016-Jun-26 16:18N 24°26' E 117°51'396218.2
2016-Jun-26 14:29N 29°54' E 121°59'152124.6
2016-Jun-26 13:16N 31°56' E 120°13'8291173.9
2016-Jun-26 12:33N 21°15' E 110°25'8131625.6
2016-Jun-26 12:03N 29°54' E 121°59'0 0.0
2016-Jun-26 08:28N 29°54' E 121°59'50767664.9
2016-Jun-26 08:27N 38°11' E 119°55'8 9.3
2016-Jun-26 07:34N 38°08' E 120°05'8304996.3
2016-Jun-26 07:24N 24°26' E 117°51'830995.2
2016-Jun-26 06:34N 38°06' E 120°16'9 9.1
2016-Jun-26 05:33N 38°04' E 120°28'49622056.2
2016-Jun-26 05:32N 29°54' E 121°59'493504.4
2016-Jun-26 04:34N 38°02' E 120°38'8293115.5
2016-Jun-26 04:18N 24°26' E 117°51'8291129.1
2016-Jun-26 03:33N 38°01' E 120°47'8292264.1
2016-Jun-26 03:12N 24°26' E 117°51'8291273.5
2016-Jun-26 02:32N 37°59' E 120°56'4885092.4
2016-Jun-26 02:27N 29°54' E 121°59'156526.1
2016-Jun-26 02:09N 31°57' E 120°07'351594.3
2016-Jun-26 01:33N 37°48' E 119°47'63306.2
2016-Jun-26 01:21N 37°55' E 121°06'6278.4
2016-Jun-26 00:34N 37°40' E 119°50'34412143.2
2016-Jun-26 00:32N 31°57' E 120°15'4601174.3
2016-Jun-26 00:08N 24°26' E 118°32'37611191.2
2016-Jun-26 00:06N 29°54' E 121°59'469853.5
2016-Jun-25 23:33N 37°32' E 119°53'4691322.3
2016-Jun-25 23:12N 29°54' E 121°59'388425.5
2016-Jun-25 22:17N 24°18' E 118°21'6 6.6
2016-Jun-25 21:25N 24°15' E 118°16'3931201.2
2016-Jun-25 21:06N 29°54' E 121°59'396561.7
2016-Jun-25 20:23N 24°26' E 117°51'396377.0
2016-Jun-25 19:20N 29°54' E 121°59'396464.4
2016-Jun-25 18:29N 24°26' E 117°51'3961687.7
2016-Jun-25 18:15N 29°54' E 121°59'0 0.0
2016-Jun-25 16:31N 29°54' E 121°59'435455.9
2016-Jun-25 15:34N 23°46' E 117°39'41569.8
2016-Jun-25 15:29N 24°26' E 117°51'3962498.9
2016-Jun-25 15:20N 29°54' E 121°59'159137.2
2016-Jun-25 14:10N 31°58' E 120°04'6 3.8
2016-Jun-25 12:31N 31°55' E 120°11'153136.4
2016-Jun-25 11:24N 29°54' E 121°59'15079.2
2016-Jun-25 09:30N 31°57' E 120°19'3282712.3
2016-Jun-25 09:23N 37°25' E 119°57'70432.1
2016-Jun-25 09:13N 37°36' E 121°25'7075.3
2016-Jun-25 08:17N 37°25' E 119°57'7879731.4
2016-Jun-25 08:12N 24°26' E 117°51'8115921.6
2016-Jun-25 08:04N 37°36' E 121°25'343585.9
2016-Jun-25 07:29N 31°57' E 120°18'377.5
2016-Jun-25 07:27N 31°57' E 120°15'3285255.7
2016-Jun-25 07:23N 37°25' E 119°57'4002111.4
2016-Jun-25 07:12N 30°51' E 121°22'2 2.9
2016-Jun-25 06:27N 30°53' E 121°22'8042.1
2016-Jun-25 04:33N 31°58' E 120°26'3413074.5
2016-Jun-25 04:26N 37°36' E 121°25'4621520.4
2016-Jun-25 04:08N 29°54' E 121°59'148256.4
2016-Jun-25 03:33N 31°58' E 120°26'4739251.1
2016-Jun-25 03:30N 24°26' E 117°51'4721277.9
2016-Jun-25 03:08N 31°58' E 120°23'3 4.9
2016-Jun-25 02:33N 31°59' E 120°27'3276723.6
2016-Jun-25 02:30N 37°21' E 119°20'7793899.3
2016-Jun-25 02:18N 24°26' E 117°51'0 0.0
2016-Jun-25 01:30N 24°26' E 117°51'0 0.0
2016-Jun-24 23:30N 24°26' E 117°51'0 0.0
2016-Jun-24 22:30N 24°26' E 117°51'4321416.1
2016-Jun-24 22:12N 30°57' E 121°17'542642560.0
2016-Jun-24 22:04N 49°18' W 122°54'0 0.5
2016-Jun-24 21:33N 49°18' W 122°54'54222440067.5
2016-Jun-24 21:33N 30°59' E 121°21'4358646.7
2016-Jun-24 21:30N 24°26' E 117°51'439463.3
2016-Jun-24 20:33N 31°01' E 121°26'54159746871.1
2016-Jun-24 20:33N 49°18' W 122°56'54104977.5
2016-Jun-24 19:28N 31°05' E 121°28'541086567.1
2016-Jun-24 19:24N 49°18' W 122°56'590433844.0
2016-Jun-24 19:14N 24°22' E 118°09'59028432.0
2016-Jun-24 18:32N 49°20' W 122°57'515758019.8
2016-Jun-24 18:27N 37°27' E 119°55'46440774.8
2016-Jun-24 18:26N 29°54' E 121°59'3956327.8
2016-Jun-24 18:22N 24°26' E 117°51'4723015.7
2016-Jun-24 18:13N 31°45' E 121°05'4 6.2
2016-Jun-24 17:33N 31°42' E 121°09'53931294378.1
2016-Jun-24 17:33N 49°18' W 122°56'5911425560.3
2016-Jun-24 17:32N 24°24' E 117°58'3944319.2
2016-Jun-24 17:27N 29°54' E 121°59'54476150.4
2016-Jun-24 16:33N 49°18' W 122°56'53922773155.2
2016-Jun-24 16:33N 31°40' E 121°13'466104812.6
2016-Jun-24 16:33N 24°24' E 118°06'465462.5
2016-Jun-24 15:33N 31°39' E 121°13'51336952.8
2016-Jun-24 15:32N 23°44' E 117°35'523903.5
2016-Jun-24 15:31N 24°21' E 118°14'3884053.1
2016-Jun-24 15:25N 29°54' E 121°59'112128.4
2016-Jun-24 14:33N 31°39' E 121°13'3541370.9
2016-Jun-24 14:17N 37°27' E 119°55'353457.4
2016-Jun-24 13:31N 31°40' E 121°13'35312208.5
2016-Jun-24 13:29N 37°27' E 119°55'353367.9
2016-Jun-24 12:32N 31°40' E 121°13'3536133.8
2016-Jun-24 12:29N 37°27' E 119°55'3662120.3
2016-Jun-24 12:18N 31°29' E 121°25'4 5.5
2016-Jun-24 11:33N 31°31' E 121°22'114583.8
2016-Jun-24 11:33N 31°40' E 121°13'553550.8
2016-Jun-24 10:33N 23°18' E 116°51'55334347.5
2016-Jun-24 10:32N 31°40' E 121°13'6211.1
2016-Jun-24 10:30N 31°35' E 121°17'6 6.3
2016-Jun-24 09:33N 31°40' E 121°13'554166101.4
2016-Jun-24 09:33N 23°21' E 116°43'5536812.5
2016-Jun-24 09:28N 31°38' E 121°14'35411707.8
2016-Jun-24 09:27N 37°27' E 119°55'25230.2
2016-Jun-24 09:20N 37°24' E 119°23'356449.9
2016-Jun-24 08:33N 31°40' E 121°13'1526.9
2016-Jun-24 08:32N 31°40' E 121°12'5541531.3
2016-Jun-24 08:11N 23°21' E 116°40'554886.3
2016-Jun-24 07:33N 31°41' E 121°11'55446396.3
2016-Jun-24 07:33N 23°21' E 116°40'554249453.7
2016-Jun-24 07:32N 31°40' E 121°13'66023305.2
2016-Jun-24 07:31N 23°03' E 113°31'6625190.9
2016-Jun-24 07:23N 31°24' E 121°37'0 0.3
2016-Jun-24 06:28N 31°23' E 121°37'2613.8
2016-Jun-24 04:33N 31°40' E 121°13'660198097.3
2016-Jun-24 04:33N 23°03' E 113°31'1753859.6
2016-Jun-24 04:30N 23°21' E 116°40'56570141.7
2016-Jun-24 04:30N 32°01' E 120°49'2931.3
2016-Jun-24 03:33N 31°40' E 121°13'3539617.9
2016-Jun-24 03:31N 37°27' E 119°55'92526864.0
2016-Jun-24 03:29N 23°03' E 113°31'660710.7
2016-Jun-24 02:33N 31°40' E 121°13'660169807.4
2016-Jun-24 02:33N 23°03' E 113°31'1751158.9
2016-Jun-24 02:24N 23°21' E 116°40'553649.8
2016-Jun-24 01:33N 31°39' E 121°13'5538298.9
2016-Jun-24 01:29N 23°21' E 116°40'1759534.9
2016-Jun-24 01:28N 23°03' E 113°31'103026874.6
2016-Jun-24 01:26N 38°48' E 121°29'10301165.5
2016-Jun-24 00:33N 23°03' E 113°31'17512838.9
2016-Jun-24 00:32N 23°21' E 116°40'553117162.7
2016-Jun-24 00:31N 31°39' E 121°13'63300.9
2016-Jun-24 00:19N 31°58' E 120°03'6383.0
2016-Jun-23 23:34N 31°39' E 121°13'55368679.6
2016-Jun-23 23:33N 23°21' E 116°40'1755154.4
2016-Jun-23 23:31N 23°02' E 113°31'6409112.6
2016-Jun-23 23:27N 31°57' E 120°08'40114149.6
2016-Jun-23 23:25N 25°18' E 119°31'391453.8
2016-Jun-23 22:33N 31°39' E 121°13'55360354.8
2016-Jun-23 22:33N 23°21' E 116°40'17523305.2
2016-Jun-23 22:32N 23°02' E 113°31'6143989.6
2016-Jun-23 22:23N 29°54' E 121°59'1523072.0
2016-Jun-23 22:20N 31°56' E 120°14'643824.7
2016-Jun-23 21:33N 23°02' E 113°31'66049527.5
2016-Jun-23 21:33N 31°39' E 121°13'507233.1
2016-Jun-23 21:32N 31°59' E 120°19'55331595.9
2016-Jun-23 21:31N 23°21' E 116°40'5201432.8
2016-Jun-23 21:09N 30°58' E 121°19'2 2.6
2016-Jun-23 20:33N 30°59' E 121°21'388061.7
2016-Jun-23 20:33N 31°37' E 121°17'53646.2
2016-Jun-23 20:28N 31°58' E 120°19'6473362.0
2016-Jun-23 20:16N 23°02' E 113°31'6144193.8
2016-Jun-23 20:08N 29°54' E 121°59'15227332.7
2016-Jun-23 20:07N 32°04' E 120°27'81144.3
2016-Jun-23 19:33N 31°01' E 121°27'640255958.9
2016-Jun-23 19:33N 23°02' E 113°31'66072032.4
2016-Jun-23 19:33N 31°31' E 121°23'102550.5
2016-Jun-23 19:22N 29°54' E 121°59'95116.6
2016-Jun-23 18:33N 31°25' E 121°31'66030474.9
2016-Jun-23 18:32N 23°02' E 113°31'614170010.0
2016-Jun-23 18:31N 29°54' E 121°59'46492872.5
2016-Jun-23 18:31N 37°27' E 119°55'3885373.3
2016-Jun-23 18:27N 31°06' E 121°27'644723.1
2016-Jun-23 17:33N 23°02' E 113°31'65718474.8
2016-Jun-23 17:31N 31°21' E 121°30'37496153.4
2016-Jun-23 17:31N 37°27' E 119°55'3293971.1
2016-Jun-23 17:26N 32°00' E 120°39'659745.7
2016-Jun-23 16:33N 23°02' E 113°31'66122457.1
2016-Jun-23 16:31N 32°01' E 120°43'5716992.3
2016-Jun-23 16:31N 31°21' E 121°30'657671.4
2016-Jun-23 15:32N 23°02' E 113°31'65810960.4
2016-Jun-23 15:29N 31°20' E 121°33'55456.6
2016-Jun-23 15:22N 32°00' E 120°49'53462.5
2016-Jun-23 15:15N 31°21' E 121°30'0 0.0
2016-Jun-23 14:33N 31°21' E 121°30'1525.8
2016-Jun-23 14:33N 31°23' E 121°30'6589584.3
2016-Jun-23 14:29N 23°02' E 113°31'61411050.3
2016-Jun-23 14:26N 29°54' E 121°59'95107.0
2016-Jun-23 13:32N 31°26' E 121°29'660263819.8
2016-Jun-23 13:32N 23°02' E 113°31'659673.7
2016-Jun-23 12:33N 31°30' E 121°23'65917976.3
2016-Jun-23 12:31N 23°02' E 113°31'6575711.9
2016-Jun-23 12:24N 31°21' E 121°30'1719.5
2016-Jun-23 11:32N 31°34' E 121°18'660182684.5
2016-Jun-23 11:32N 23°02' E 113°31'657147796.5
2016-Jun-23 11:32N 31°21' E 121°30'71388.2
2016-Jun-23 11:21N 31°57' E 120°19'5514679.6
2016-Jun-23 11:14N 23°21' E 116°40'0 0.0
2016-Jun-23 10:34N 23°21' E 116°40'17526210.0
2016-Jun-23 10:33N 23°02' E 113°31'657107492.7
2016-Jun-23 10:33N 31°21' E 121°30'242674.4
2016-Jun-23 10:32N 31°40' E 121°12'2424.1
2016-Jun-23 09:33N 31°25' E 121°34'661125300.1
2016-Jun-23 09:33N 23°02' E 113°31'66030461.4
2016-Jun-23 09:32N 31°43' E 121°06'55573966.0
2016-Jun-23 09:31N 23°21' E 116°40'5031155.5
2016-Jun-23 09:05N 30°20' E 121°53'503948.6
2016-Jun-23 08:33N 23°21' E 116°40'17517972.6
2016-Jun-23 08:33N 23°02' E 113°31'6593088.9
2016-Jun-23 08:20N 31°44' E 121°03'33791.0
2016-Jun-23 08:17N 31°25' E 121°34'3713807.6
2016-Jun-23 08:12N 37°27' E 119°55'9261426.5
2016-Jun-23 07:33N 23°02' E 113°31'17518500.9
2016-Jun-23 07:32N 23°21' E 116°40'54927082.9
2016-Jun-23 07:31N 31°25' E 121°34'33239.7
2016-Jun-23 07:23N 31°44' E 121°03'659361.8
2016-Jun-23 05:33N 23°02' E 113°31'649116794.5
2016-Jun-23 05:33N 30°44' E 122°01'52767783.1
2016-Jun-23 05:33N 23°21' E 116°40'175176.0
2016-Jun-23 04:33N 23°02' E 113°31'17513104.6
2016-Jun-23 04:32N 23°21' E 116°40'54932950.2
2016-Jun-23 04:31N 31°25' E 121°34'549570.6
2016-Jun-23 03:33N 23°21' E 116°40'175125804.4
2016-Jun-23 03:33N 23°02' E 113°31'66120700.7
2016-Jun-23 03:31N 31°25' E 121°34'661671.3
2016-Jun-23 02:32N 23°02' E 113°31'1754111.2
2016-Jun-23 02:30N 23°21' E 116°40'54918652.6
2016-Jun-23 02:28N 31°25' E 121°34'54211.5
2016-Jun-23 02:13N 32°00' E 120°46'5478.8
2016-Jun-23 01:32N 31°25' E 121°34'54998859.0
2016-Jun-23 01:31N 23°21' E 116°40'175181.6
2016-Jun-23 00:33N 23°02' E 113°31'1751021.1
2016-Jun-23 00:23N 23°21' E 116°40'175211.0
2016-Jun-22 23:34N 23°02' E 113°31'66113147.9
2016-Jun-22 23:31N 31°22' E 121°37'3818.6
2016-Jun-22 23:30N 31°25' E 121°34'5491499.0
2016-Jun-22 23:08N 23°21' E 116°40'0 0.9
2016-Jun-22 22:33N 23°21' E 116°39'550141355.7
2016-Jun-22 22:33N 31°25' E 121°34'66199201.2
2016-Jun-22 22:33N 23°02' E 113°31'64668359.2
2016-Jun-22 22:32N 31°57' E 120°18'542116154.4
2016-Jun-22 22:12N 49°18' W 122°54'60249339.5
2016-Jun-22 21:33N 23°18' E 116°47'549164710.3
2016-Jun-22 21:33N 31°25' E 121°34'661132262.2
2016-Jun-22 21:33N 23°02' E 113°31'614736692.2
2016-Jun-22 21:33N 29°54' E 121°59'54491401066.0
2016-Jun-22 21:33N 49°18' W 122°53'53915455.1
2016-Jun-22 20:33N 31°25' E 121°34'66136628.4
2016-Jun-22 20:32N 23°02' E 113°31'6181342331.2
2016-Jun-22 20:31N 49°17' W 123°07'2 2.4
2016-Jun-22 19:33N 49°19' W 123°09'1 1.4
2016-Jun-22 18:33N 49°19' W 123°07'618071542.2
2016-Jun-22 18:28N 23°02' E 113°31'93413086.5
2016-Jun-22 18:24N 37°36' E 119°51'3811698.1
2016-Jun-22 18:10N 31°25' E 121°34'388631.9
2016-Jun-22 17:34N 37°43' E 119°48'48144436.0
2016-Jun-22 17:33N 29°54' E 121°59'61421457.6
2016-Jun-22 17:31N 23°02' E 113°31'66136072.4
2016-Jun-22 17:30N 31°25' E 121°34'661697.8
2016-Jun-22 16:33N 23°02' E 113°31'61426311.1
2016-Jun-22 16:32N 29°54' E 121°59'4915275.6
2016-Jun-22 16:26N 37°51' E 119°41'8 9.5
2016-Jun-22 15:33N 37°57' E 119°34'94894832.7
2016-Jun-22 15:33N 23°02' E 113°31'66130919.0
2016-Jun-22 15:31N 31°25' E 121°34'661679.8
2016-Jun-22 14:33N 23°02' E 113°31'66114517.8
2016-Jun-22 14:30N 31°25' E 121°34'423446.6
2016-Jun-22 13:34N 38°12' E 119°16'95753030.6
2016-Jun-22 13:32N 23°02' E 113°31'0 0.0
2016-Jun-22 12:30N 23°02' E 113°31'661216451.8
2016-Jun-22 12:29N 31°25' E 121°34'4341314.2
2016-Jun-22 12:10N 38°20' E 118°60'434698.5
2016-Jun-22 11:32N 31°25' E 121°34'4392802.3
2016-Jun-22 11:23N 38°23' E 118°50'1011.8
2016-Jun-22 10:34N 38°24' E 118°38'4446490.3
2016-Jun-22 10:29N 31°25' E 121°34'66125601.6
2016-Jun-22 10:28N 23°02' E 113°31'0 0.1
2016-Jun-22 09:33N 23°02' E 113°31'66115164.5
2016-Jun-22 09:31N 31°25' E 121°34'2020.9
2016-Jun-22 08:33N 31°11' E 121°51'6612379690.7
2016-Jun-22 08:33N 23°02' E 113°31'66116766.5
2016-Jun-22 08:31N 31°25' E 121°34'661688.5
2016-Jun-22 07:33N 23°02' E 113°31'66118746.9
2016-Jun-22 07:31N 31°25' E 121°34'835.1
2016-Jun-22 07:18N 31°20' E 121°41'6 8.1
2016-Jun-22 06:33N 31°23' E 121°35'66141725.7
2016-Jun-22 06:32N 23°02' E 113°31'66129392.7
2016-Jun-22 06:31N 31°25' E 121°34'661680.4
2016-Jun-22 05:33N 23°02' E 113°31'0 0.1
2016-Jun-22 04:31N 23°02' E 113°31'66120882.9
2016-Jun-22 04:29N 31°25' E 121°34'343.5
2016-Jun-22 04:25N 31°23' E 121°36'661769.8
2016-Jun-22 03:34N 23°02' E 113°31'661396790.4
2016-Jun-22 03:33N 31°25' E 121°34'0 0.0
2016-Jun-22 02:33N 31°25' E 121°34'66217774.3
2016-Jun-22 02:31N 23°01' E 113°32'662669.0
2016-Jun-22 01:32N 31°25' E 121°34'6626437.1
2016-Jun-22 01:26N 23°01' E 113°32'0 0.1
2016-Jun-22 00:33N 23°01' E 113°32'66214260.2
2016-Jun-22 00:31N 31°25' E 121°34'662666.3
2016-Jun-21 23:31N 23°01' E 113°32'66230145.3
2016-Jun-21 23:30N 31°25' E 121°34'95245.5
2016-Jun-21 23:07N 29°53' E 122°04'95170.7
2016-Jun-21 22:33N 31°25' E 121°34'662396937.8
2016-Jun-21 22:33N 23°01' E 113°32'6174287.3
2016-Jun-21 22:25N 29°53' E 122°04'617725.5
2016-Jun-21 21:33N 23°01' E 113°32'66215267.0
2016-Jun-21 21:31N 31°25' E 121°34'9514212.4
2016-Jun-21 21:30N 29°53' E 122°04'617645.0
2016-Jun-21 20:33N 23°01' E 113°32'66244104.2
2016-Jun-21 20:32N 31°25' E 121°34'483.1
2016-Jun-21 20:29N 31°21' E 121°31'93409.6
2016-Jun-21 20:16N 29°53' E 122°04'95134.8
2016-Jun-21 19:33N 31°25' E 121°34'66239043.1
2016-Jun-21 19:32N 23°01' E 113°32'0 0.0
2016-Jun-21 18:33N 23°01' E 113°32'66282125.6
2016-Jun-21 18:32N 31°25' E 121°34'662661.2
2016-Jun-21 17:32N 23°01' E 113°32'66211732.5
2016-Jun-21 17:29N 31°25' E 121°34'428.1
2016-Jun-21 17:20N 31°21' E 121°31'657845.8
2016-Jun-21 16:33N 23°01' E 113°32'660125084.6
2016-Jun-21 16:33N 31°24' E 121°32'3145.7
2016-Jun-21 16:32N 31°21' E 121°31'657670.2
2016-Jun-21 15:33N 23°01' E 113°32'0 0.0
2016-Jun-21 14:33N 23°01' E 113°32'6578998.4
2016-Jun-21 14:29N 31°21' E 121°31'117.7
2016-Jun-21 14:26N 31°21' E 121°31'1 7.0
2016-Jun-21 14:19N 31°21' E 121°31'0 0.1
2016-Jun-21 13:33N 31°21' E 121°31'0 2.4
2016-Jun-21 13:25N 31°21' E 121°31'0 0.4
2016-Jun-21 12:33N 31°21' E 121°31'011.2
2016-Jun-21 12:31N 31°21' E 121°31'916162.8
2016-Jun-21 12:31N 29°54' E 121°59'9082.3
2016-Jun-21 11:25N 31°21' E 121°31'0 1.6
2016-Jun-21 11:13N 31°21' E 121°31'0 0.4
2016-Jun-21 10:32N 31°21' E 121°30'513.6
2016-Jun-21 10:11N 31°26' E 121°28'5 7.3
2016-Jun-21 09:32N 31°21' E 121°30'91727.2
2016-Jun-21 09:25N 29°54' E 121°59'952725.5
2016-Jun-21 09:22N 31°26' E 121°28'0 0.0
2016-Jun-21 08:28N 31°26' E 121°28'95601.5
2016-Jun-21 08:19N 29°54' E 121°59'91117.9
2016-Jun-21 07:32N 31°21' E 121°30'0 0.1
2016-Jun-21 05:33N 31°21' E 121°30'0 0.0
2016-Jun-21 04:31N 31°21' E 121°30'0 0.0
2016-Jun-21 02:29N 31°21' E 121°30'610522220.9
2016-Jun-21 02:13N 33°37' W 117°55'61058136.4
2016-Jun-21 01:28N 31°21' E 121°30'0 0.0
2016-Jun-21 00:33N 31°21' E 121°30'0 0.0
2016-Jun-20 23:30N 31°21' E 121°30'0 0.0
2016-Jun-20 22:25N 31°21' E 121°30'2 0.6
2016-Jun-20 19:33N 31°23' E 121°30'100496.5
2016-Jun-20 19:21N 29°48' E 122°04'7 9.1
2016-Jun-20 18:33N 29°54' E 122°08'956009.8
2016-Jun-20 18:32N 31°25' E 121°34'763.3
2016-Jun-20 18:25N 31°20' E 121°41'87762.1
2016-Jun-20 18:19N 29°54' E 121°59'92116.8
2016-Jun-20 17:31N 31°23' E 121°34'1326.4
2016-Jun-20 17:31N 31°25' E 121°34'876687.6
2016-Jun-20 17:30N 30°00' E 122°01'666.2
2016-Jun-20 17:25N 29°54' E 121°59'1431683.0
2016-Jun-20 17:19N 32°02' E 120°44'5570.6
2016-Jun-20 16:33N 31°24' E 121°31'3102.8
2016-Jun-20 16:31N 31°25' E 121°34'610056017.1
2016-Jun-20 16:25N 33°37' W 117°55'61027122.4
2016-Jun-20 15:33N 31°25' E 121°32'155.9
2016-Jun-20 15:32N 31°24' E 121°31'530.3
2016-Jun-20 15:22N 31°24' E 121°36'911.3
2016-Jun-20 14:34N 31°28' E 121°27'5224.5
2016-Jun-20 14:32N 31°24' E 121°31'6623449.3
2016-Jun-20 14:21N 22°57' E 113°32'662834.8
2016-Jun-20 13:33N 31°32' E 121°20'660475280.6
2016-Jun-20 13:33N 23°01' E 113°31'660395994.2
2016-Jun-20 13:33N 31°24' E 121°31'0 0.1
2016-Jun-20 12:33N 31°24' E 121°31'659197768.5
2016-Jun-20 12:33N 23°01' E 113°32'657663.1
2016-Jun-20 11:33N 31°22' E 121°30'657181985.2
2016-Jun-20 11:33N 23°01' E 113°32'0 0.0
2016-Jun-20 10:27N 23°01' E 113°32'6604106.1
2016-Jun-20 10:17N 31°39' E 121°13'112137.9
2016-Jun-20 09:29N 29°54' E 121°59'61415135.3
2016-Jun-20 09:26N 23°01' E 113°32'0 0.0
2016-Jun-20 08:32N 23°01' E 113°32'66017742.1
2016-Jun-20 08:30N 31°39' E 121°13'660681.0
2016-Jun-20 07:32N 23°01' E 113°32'6608114.2
2016-Jun-20 07:27N 31°39' E 121°13'1 1.4
2016-Jun-20 06:32N 31°40' E 121°12'66133490.7
2016-Jun-20 06:31N 23°01' E 113°32'0 0.0
2016-Jun-20 05:25N 23°01' E 113°32'0 0.0
2016-Jun-20 04:34N 23°01' E 113°32'6612174.3
2016-Jun-20 04:15N 31°21' E 121°38'4 5.3
2016-Jun-20 03:28N 31°23' E 121°34'92977.0
2016-Jun-20 03:23N 29°54' E 121°59'61450221.6
2016-Jun-20 03:22N 23°01' E 113°32'660814.3
2016-Jun-20 02:33N 31°26' E 121°29'6602375313.8
2016-Jun-20 02:33N 23°01' E 113°32'6147920.2
2016-Jun-20 02:29N 29°54' E 121°59'101109.9
2016-Jun-20 01:33N 31°30' E 121°23'46034522.9
2016-Jun-20 01:33N 24°26' E 118°02'2611429.3
2016-Jun-20 01:22N 23°01' E 113°32'0 0.0
2016-Jun-20 00:33N 23°01' E 113°32'6141630.8
2016-Jun-20 00:11N 29°54' E 121°59'951424.6
2016-Jun-20 00:07N 31°26' E 121°28'6591130.5
2016-Jun-19 23:32N 23°01' E 113°32'66016840.0
2016-Jun-19 23:29N 31°25' E 121°30'94850.6
2016-Jun-19 23:23N 29°54' E 121°59'614703.4
2016-Jun-19 22:30N 23°01' E 113°32'0 0.0
2016-Jun-19 21:31N 23°01' E 113°32'682143846.2
2016-Jun-19 21:22N 33°37' W 117°55'613269196.8
2016-Jun-19 21:17N 29°54' E 121°59'614839.4
2016-Jun-19 20:33N 23°01' E 113°32'6627025.3
2016-Jun-19 20:27N 32°01' E 120°43'662672.6
2016-Jun-19 19:28N 23°01' E 113°32'6821132010.0
2016-Jun-19 19:25N 33°37' W 117°55'68217936.0
2016-Jun-19 18:33N 23°01' E 113°32'0 0.0
2016-Jun-19 17:33N 23°01' E 113°32'6433501.2
2016-Jun-19 17:22N 31°57' E 120°12'643787.2
2016-Jun-19 16:33N 23°01' E 113°32'6443912.1
2016-Jun-19 16:23N 31°57' E 120°15'428.1
2016-Jun-19 16:14N 31°55' E 120°11'0 0.0
2016-Jun-19 15:31N 31°55' E 120°11'64116254.0
2016-Jun-19 15:28N 23°01' E 113°32'6146676.9
2016-Jun-19 15:23N 29°54' E 121°59'614743.4
2016-Jun-19 14:33N 23°01' E 113°32'6148308.5
2016-Jun-19 14:29N 29°54' E 121°59'614663.1
2016-Jun-19 13:33N 23°01' E 113°32'0 0.0
2016-Jun-19 12:33N 23°01' E 113°32'6148246.5
2016-Jun-19 12:29N 29°54' E 121°59'1536049.7
2016-Jun-19 12:27N 31°55' E 120°11'641700.1
2016-Jun-19 11:32N 23°01' E 113°32'6612133.6
2016-Jun-19 11:14N 31°27' E 121°29'661980.6
2016-Jun-19 10:33N 23°01' E 113°31'66019016.8
2016-Jun-19 10:31N 31°25' E 121°31'4 4.6
2016-Jun-19 09:33N 31°21' E 121°31'657473084.1
2016-Jun-19 09:33N 23°01' E 113°31'6642799.3
2016-Jun-19 09:19N 32°00' E 120°49'64288.3
2016-Jun-19 09:05N 31°17' E 121°44'610.3
2016-Jun-19 08:33N 31°20' E 121°39'66239049.9
2016-Jun-19 08:32N 23°02' E 113°31'6524286.3
2016-Jun-19 08:22N 31°15' E 121°31'652788.2
2016-Jun-19 07:33N 23°02' E 113°31'6636399.3
2016-Jun-19 07:27N 32°01' E 120°46'4741328.0
2016-Jun-19 07:05N 24°29' E 118°04'3 5.0
2016-Jun-19 06:33N 24°26' E 118°03'26335115.9
2016-Jun-19 06:32N 23°02' E 113°31'266256.2
2016-Jun-19 05:30N 24°23' E 118°08'6 5.6
2016-Jun-19 04:31N 24°18' E 118°10'840840.5
2016-Jun-19 03:31N 38°18' E 118°13'8465992.1
2016-Jun-19 03:22N 24°12' E 118°05'2591169.8
2016-Jun-19 03:09N 22°59' E 113°34'9501489.8
2016-Jun-19 02:31N 38°18' E 118°13'421427.3
2016-Jun-19 01:32N 31°42' E 121°09'6634728.8
2016-Jun-19 01:23N 22°57' E 113°32'3 3.9
2016-Jun-19 00:31N 23°01' E 113°32'1 1.4
2016-Jun-18 23:33N 23°02' E 113°31'230231.2
2016-Jun-18 22:33N 23°44' E 117°37'4371895.0
2016-Jun-18 22:19N 29°54' E 121°59'6143571.1
2016-Jun-18 22:09N 23°02' E 113°31'0 0.0
2016-Jun-18 21:33N 23°02' E 113°31'61421460.8
2016-Jun-18 21:31N 29°54' E 121°59'614472.5
2016-Jun-18 20:13N 23°02' E 113°31'0 0.0
2016-Jun-18 19:31N 23°02' E 113°31'0 0.0
2016-Jun-18 18:33N 23°02' E 113°31'0 0.0
2016-Jun-18 17:33N 23°02' E 113°31'6144634.0
2016-Jun-18 17:25N 29°54' E 121°59'614703.3
2016-Jun-18 16:33N 23°02' E 113°31'61423267.0
2016-Jun-18 16:31N 29°54' E 121°59'614635.9
2016-Jun-18 15:34N 23°02' E 113°31'61417825.4
2016-Jun-18 15:31N 29°54' E 121°59'614635.9
2016-Jun-18 14:34N 23°02' E 113°31'61417825.4
2016-Jun-18 14:31N 29°54' E 121°59'614636.1
2016-Jun-18 13:34N 23°02' E 113°31'0 0.0
2016-Jun-18 12:22N 23°02' E 113°31'0 0.0
2016-Jun-18 11:23N 23°02' E 113°31'0 0.0
2016-Jun-18 10:33N 23°02' E 113°31'6144733.3
2016-Jun-18 10:25N 29°54' E 121°59'614640.0
2016-Jun-18 09:28N 23°02' E 113°31'61415140.3
2016-Jun-18 09:25N 29°54' E 121°59'614562.6
2016-Jun-18 08:20N 23°02' E 113°31'61410627.3
2016-Jun-18 08:16N 29°54' E 121°59'614753.9
2016-Jun-18 07:28N 23°02' E 113°31'6142150.3
2016-Jun-18 07:10N 29°54' E 121°59'614909.7
2016-Jun-18 06:30N 23°02' E 113°31'0 0.0
2016-Jun-18 05:22N 23°02' E 113°31'0 0.0
2016-Jun-18 04:23N 23°02' E 113°31'0 0.0
2016-Jun-18 03:33N 23°02' E 113°31'0 0.0
2016-Jun-18 02:32N 23°02' E 113°31'6373624.1
2016-Jun-18 02:22N 31°11' E 121°09'637774.5
2016-Jun-18 01:33N 23°02' E 113°31'6141887.6
2016-Jun-18 01:13N 29°54' E 121°59'614917.5
2016-Jun-18 00:33N 23°02' E 113°31'6621781.3
2016-Jun-18 00:11N 31°23' E 121°37'6621063.5
2016-Jun-17 23:33N 23°02' E 113°31'662662.2
2016-Jun-17 22:33N 31°23' E 121°37'6624005.6
2016-Jun-17 22:23N 23°02' E 113°31'662798.2
2016-Jun-17 21:34N 31°23' E 121°37'6626389.7
2016-Jun-17 21:27N 23°02' E 113°31'6144447.7
2016-Jun-17 21:19N 29°54' E 121°59'91114.6
2016-Jun-17 20:31N 31°23' E 121°37'91885.8
2016-Jun-17 20:25N 29°54' E 121°59'61426315.3
2016-Jun-17 20:24N 23°02' E 113°31'662787.6
2016-Jun-17 19:33N 31°23' E 121°37'912489.8
2016-Jun-17 19:31N 29°54' E 121°59'9192.1
2016-Jun-17 18:32N 31°23' E 121°37'6622427.0
2016-Jun-17 18:15N 23°02' E 113°31'0 0.0
2016-Jun-17 17:22N 23°02' E 113°31'662125441.5
2016-Jun-17 17:22N 31°23' E 121°37'0 0.1
2016-Jun-17 16:33N 31°23' E 121°36'6628421.5
2016-Jun-17 16:28N 23°02' E 113°31'6144186.3
2016-Jun-17 16:19N 29°54' E 121°59'614809.4
2016-Jun-17 15:34N 23°02' E 113°31'66230554.4
2016-Jun-17 15:32N 31°23' E 121°36'914504.6
2016-Jun-17 15:31N 29°54' E 121°59'614628.3
2016-Jun-17 14:32N 23°02' E 113°31'66218474.5
2016-Jun-17 14:30N 31°23' E 121°36'1 1.4
2016-Jun-17 13:33N 31°22' E 121°38'6621907.7
2016-Jun-17 13:12N 23°01' E 113°32'  
Track history (hours):
 
Tides and Currents Weather Stations Pressure Air Temp Water Temp Dewpoint Dewpoint Depression Visibility Wind Speed Wind Dir Waves Ship Positions

Graceful Lady

Last reported at 2016-Jun-27 12:33 UTC. Time now 2016-Jun-27 13:11 UTC.
Position N 31°32' E 121°20'.

Length 6 m.

Type: Pollution control. MMSI: 316014038.

Date/timePositionNaut miles runAvg speedWind from/ knotsBaromVisibWave heightAir tempDewpointWater temp
2016-Jun-27 12:33N 31°32' E 121°20'46069001.1
2016-Jun-27 12:33N 24°24' E 118°09'7 7.1
2016-Jun-27 11:33N 24°25' E 118°02'461127780.6
2016-Jun-27 11:33N 31°32' E 121°20'0 0.1
2016-Jun-27 10:33N 31°32' E 121°20'0 0.0
2016-Jun-27 09:33N 31°32' E 121°20'15191.3
2016-Jun-27 09:29N 31°43' E 121°08'4712620.5
2016-Jun-27 09:18N 24°26' E 117°51'465624.7
2016-Jun-27 08:33N 31°32' E 121°20'9139.1
2016-Jun-27 08:29N 31°40' E 121°13'910.0
2016-Jun-27 07:33N 31°32' E 121°20'0 0.0
2016-Jun-27 06:33N 31°32' E 121°20'223.9
2016-Jun-27 06:27N 31°32' E 121°23'2 2.7
2016-Jun-27 05:33N 31°32' E 121°20'0 0.0
2016-Jun-27 04:33N 31°32' E 121°20'4651800.4
2016-Jun-27 04:18N 24°26' E 117°51'465625.4
2016-Jun-27 03:33N 31°33' E 121°20'6 5.8
2016-Jun-27 02:33N 31°38' E 121°15'7 6.2
2016-Jun-27 01:30N 31°42' E 121°09'5 4.9
2016-Jun-27 00:32N 31°45' E 121°05'4713469.0
2016-Jun-27 00:24N 24°26' E 117°51'471520.2
2016-Jun-26 23:29N 31°46' E 121°00'6 3.0
2016-Jun-26 21:25N 31°50' E 120°54'129141.6
2016-Jun-26 20:30N 29°54' E 121°59'0 0.0
2016-Jun-26 19:25N 29°54' E 121°59'0 0.0
2016-Jun-26 16:29N 29°54' E 121°59'3962049.5
2016-Jun-26 16:18N 24°26' E 117°51'396218.2
2016-Jun-26 14:29N 29°54' E 121°59'152124.6
2016-Jun-26 13:16N 31°56' E 120°13'8291173.9
2016-Jun-26 12:33N 21°15' E 110°25'8131625.6
2016-Jun-26 12:03N 29°54' E 121°59'0 0.0
2016-Jun-26 08:28N 29°54' E 121°59'50767664.9
2016-Jun-26 08:27N 38°11' E 119°55'8 9.3
2016-Jun-26 07:34N 38°08' E 120°05'8304996.3
2016-Jun-26 07:24N 24°26' E 117°51'830995.2
2016-Jun-26 06:34N 38°06' E 120°16'9 9.1
2016-Jun-26 05:33N 38°04' E 120°28'49622056.2
2016-Jun-26 05:32N 29°54' E 121°59'493504.4
2016-Jun-26 04:34N 38°02' E 120°38'8293115.5
2016-Jun-26 04:18N 24°26' E 117°51'8291129.1
2016-Jun-26 03:33N 38°01' E 120°47'8292264.1
2016-Jun-26 03:12N 24°26' E 117°51'8291273.5
2016-Jun-26 02:32N 37°59' E 120°56'4885092.4
2016-Jun-26 02:27N 29°54' E 121°59'156526.1
2016-Jun-26 02:09N 31°57' E 120°07'351594.3
2016-Jun-26 01:33N 37°48' E 119°47'63306.2
2016-Jun-26 01:21N 37°55' E 121°06'6278.4
2016-Jun-26 00:34N 37°40' E 119°50'34412143.2
2016-Jun-26 00:32N 31°57' E 120°15'4601174.3
2016-Jun-26 00:08N 24°26' E 118°32'37611191.2
2016-Jun-26 00:06N 29°54' E 121°59'469853.5
2016-Jun-25 23:33N 37°32' E 119°53'4691322.3
2016-Jun-25 23:12N 29°54' E 121°59'388425.5
2016-Jun-25 22:17N 24°18' E 118°21'6 6.6
2016-Jun-25 21:25N 24°15' E 118°16'3931201.2
2016-Jun-25 21:06N 29°54' E 121°59'396561.7
2016-Jun-25 20:23N 24°26' E 117°51'396377.0
2016-Jun-25 19:20N 29°54' E 121°59'396464.4
2016-Jun-25 18:29N 24°26' E 117°51'3961687.7
2016-Jun-25 18:15N 29°54' E 121°59'0 0.0
2016-Jun-25 16:31N 29°54' E 121°59'435455.9
2016-Jun-25 15:34N 23°46' E 117°39'41569.8
2016-Jun-25 15:29N 24°26' E 117°51'3962498.9
2016-Jun-25 15:20N 29°54' E 121°59'159137.2
2016-Jun-25 14:10N 31°58' E 120°04'6 3.8
2016-Jun-25 12:31N 31°55' E 120°11'153136.4
2016-Jun-25 11:24N 29°54' E 121°59'15079.2
2016-Jun-25 09:30N 31°57' E 120°19'3282712.3
2016-Jun-25 09:23N 37°25' E 119°57'70432.1
2016-Jun-25 09:13N 37°36' E 121°25'7075.3
2016-Jun-25 08:17N 37°25' E 119°57'7879731.4
2016-Jun-25 08:12N 24°26' E 117°51'8115921.6
2016-Jun-25 08:04N 37°36' E 121°25'343585.9
2016-Jun-25 07:29N 31°57' E 120°18'377.5
2016-Jun-25 07:27N 31°57' E 120°15'3285255.7
2016-Jun-25 07:23N 37°25' E 119°57'4002111.4
2016-Jun-25 07:12N 30°51' E 121°22'2 2.9
2016-Jun-25 06:27N 30°53' E 121°22'8042.1
2016-Jun-25 04:33N 31°58' E 120°26'3413074.5
2016-Jun-25 04:26N 37°36' E 121°25'4621520.4
2016-Jun-25 04:08N 29°54' E 121°59'148256.4
2016-Jun-25 03:33N 31°58' E 120°26'4739251.1
2016-Jun-25 03:30N 24°26' E 117°51'4721277.9
2016-Jun-25 03:08N 31°58' E 120°23'3 4.9
2016-Jun-25 02:33N 31°59' E 120°27'3276723.6
2016-Jun-25 02:30N 37°21' E 119°20'7793899.3
2016-Jun-25 02:18N 24°26' E 117°51'0 0.0
2016-Jun-25 01:30N 24°26' E 117°51'0 0.0
2016-Jun-24 23:30N 24°26' E 117°51'0 0.0
2016-Jun-24 22:30N 24°26' E 117°51'4321416.1
2016-Jun-24 22:12N 30°57' E 121°17'542642560.0
2016-Jun-24 22:04N 49°18' W 122°54'0 0.5
2016-Jun-24 21:33N 49°18' W 122°54'54222440067.5
2016-Jun-24 21:33N 30°59' E 121°21'4358646.7
2016-Jun-24 21:30N 24°26' E 117°51'439463.3
2016-Jun-24 20:33N 31°01' E 121°26'54159746871.1
2016-Jun-24 20:33N 49°18' W 122°56'54104977.5
2016-Jun-24 19:28N 31°05' E 121°28'541086567.1
2016-Jun-24 19:24N 49°18' W 122°56'590433844.0
2016-Jun-24 19:14N 24°22' E 118°09'59028432.0
2016-Jun-24 18:32N 49°20' W 122°57'515758019.8
2016-Jun-24 18:27N 37°27' E 119°55'46440774.8
2016-Jun-24 18:26N 29°54' E 121°59'3956327.8
2016-Jun-24 18:22N 24°26' E 117°51'4723015.7
2016-Jun-24 18:13N 31°45' E 121°05'4 6.2
2016-Jun-24 17:33N 31°42' E 121°09'53931294378.1
2016-Jun-24 17:33N 49°18' W 122°56'5911425560.3
2016-Jun-24 17:32N 24°24' E 117°58'3944319.2
2016-Jun-24 17:27N 29°54' E 121°59'54476150.4
2016-Jun-24 16:33N 49°18' W 122°56'53922773155.2
2016-Jun-24 16:33N 31°40' E 121°13'466104812.6
2016-Jun-24 16:33N 24°24' E 118°06'465462.5
2016-Jun-24 15:33N 31°39' E 121°13'51336952.8
2016-Jun-24 15:32N 23°44' E 117°35'523903.5
2016-Jun-24 15:31N 24°21' E 118°14'3884053.1
2016-Jun-24 15:25N 29°54' E 121°59'112128.4
2016-Jun-24 14:33N 31°39' E 121°13'3541370.9
2016-Jun-24 14:17N 37°27' E 119°55'353457.4
2016-Jun-24 13:31N 31°40' E 121°13'35312208.5
2016-Jun-24 13:29N 37°27' E 119°55'353367.9
2016-Jun-24 12:32N 31°40' E 121°13'3536133.8
2016-Jun-24 12:29N 37°27' E 119°55'3662120.3
2016-Jun-24 12:18N 31°29' E 121°25'4 5.5
2016-Jun-24 11:33N 31°31' E 121°22'114583.8
2016-Jun-24 11:33N 31°40' E 121°13'553550.8
2016-Jun-24 10:33N 23°18' E 116°51'55334347.5
2016-Jun-24 10:32N 31°40' E 121°13'6211.1
2016-Jun-24 10:30N 31°35' E 121°17'6 6.3
2016-Jun-24 09:33N 31°40' E 121°13'554166101.4
2016-Jun-24 09:33N 23°21' E 116°43'5536812.5
2016-Jun-24 09:28N 31°38' E 121°14'35411707.8
2016-Jun-24 09:27N 37°27' E 119°55'25230.2
2016-Jun-24 09:20N 37°24' E 119°23'356449.9
2016-Jun-24 08:33N 31°40' E 121°13'1526.9
2016-Jun-24 08:32N 31°40' E 121°12'5541531.3
2016-Jun-24 08:11N 23°21' E 116°40'554886.3
2016-Jun-24 07:33N 31°41' E 121°11'55446396.3
2016-Jun-24 07:33N 23°21' E 116°40'554249453.7
2016-Jun-24 07:32N 31°40' E 121°13'66023305.2
2016-Jun-24 07:31N 23°03' E 113°31'6625190.9
2016-Jun-24 07:23N 31°24' E 121°37'0 0.3
2016-Jun-24 06:28N 31°23' E 121°37'2613.8
2016-Jun-24 04:33N 31°40' E 121°13'660198097.3
2016-Jun-24 04:33N 23°03' E 113°31'1753859.6
2016-Jun-24 04:30N 23°21' E 116°40'56570141.7
2016-Jun-24 04:30N 32°01' E 120°49'2931.3
2016-Jun-24 03:33N 31°40' E 121°13'3539617.9
2016-Jun-24 03:31N 37°27' E 119°55'92526864.0
2016-Jun-24 03:29N 23°03' E 113°31'660710.7
2016-Jun-24 02:33N 31°40' E 121°13'660169807.4
2016-Jun-24 02:33N 23°03' E 113°31'1751158.9
2016-Jun-24 02:24N 23°21' E 116°40'553649.8
2016-Jun-24 01:33N 31°39' E 121°13'5538298.9
2016-Jun-24 01:29N 23°21' E 116°40'1759534.9
2016-Jun-24 01:28N 23°03' E 113°31'103026874.6
2016-Jun-24 01:26N 38°48' E 121°29'10301165.5
2016-Jun-24 00:33N 23°03' E 113°31'17512838.9
2016-Jun-24 00:32N 23°21' E 116°40'553117162.7
2016-Jun-24 00:31N 31°39' E 121°13'63300.9
2016-Jun-24 00:19N 31°58' E 120°03'6383.0
2016-Jun-23 23:34N 31°39' E 121°13'55368679.6
2016-Jun-23 23:33N 23°21' E 116°40'1755154.4
2016-Jun-23 23:31N 23°02' E 113°31'6409112.6
2016-Jun-23 23:27N 31°57' E 120°08'40114149.6
2016-Jun-23 23:25N 25°18' E 119°31'391453.8
2016-Jun-23 22:33N 31°39' E 121°13'55360354.8
2016-Jun-23 22:33N 23°21' E 116°40'17523305.2
2016-Jun-23 22:32N 23°02' E 113°31'6143989.6
2016-Jun-23 22:23N 29°54' E 121°59'1523072.0
2016-Jun-23 22:20N 31°56' E 120°14'643824.7
2016-Jun-23 21:33N 23°02' E 113°31'66049527.5
2016-Jun-23 21:33N 31°39' E 121°13'507233.1
2016-Jun-23 21:32N 31°59' E 120°19'55331595.9
2016-Jun-23 21:31N 23°21' E 116°40'5201432.8
2016-Jun-23 21:09N 30°58' E 121°19'2 2.6
2016-Jun-23 20:33N 30°59' E 121°21'388061.7
2016-Jun-23 20:33N 31°37' E 121°17'53646.2
2016-Jun-23 20:28N 31°58' E 120°19'6473362.0
2016-Jun-23 20:16N 23°02' E 113°31'6144193.8
2016-Jun-23 20:08N 29°54' E 121°59'15227332.7
2016-Jun-23 20:07N 32°04' E 120°27'81144.3
2016-Jun-23 19:33N 31°01' E 121°27'640255958.9
2016-Jun-23 19:33N 23°02' E 113°31'66072032.4
2016-Jun-23 19:33N 31°31' E 121°23'102550.5
2016-Jun-23 19:22N 29°54' E 121°59'95116.6
2016-Jun-23 18:33N 31°25' E 121°31'66030474.9
2016-Jun-23 18:32N 23°02' E 113°31'614170010.0
2016-Jun-23 18:31N 29°54' E 121°59'46492872.5
2016-Jun-23 18:31N 37°27' E 119°55'3885373.3
2016-Jun-23 18:27N 31°06' E 121°27'644723.1
2016-Jun-23 17:33N 23°02' E 113°31'65718474.8
2016-Jun-23 17:31N 31°21' E 121°30'37496153.4
2016-Jun-23 17:31N 37°27' E 119°55'3293971.1
2016-Jun-23 17:26N 32°00' E 120°39'659745.7
2016-Jun-23 16:33N 23°02' E 113°31'66122457.1
2016-Jun-23 16:31N 32°01' E 120°43'5716992.3
2016-Jun-23 16:31N 31°21' E 121°30'657671.4
2016-Jun-23 15:32N 23°02' E 113°31'65810960.4
2016-Jun-23 15:29N 31°20' E 121°33'55456.6
2016-Jun-23 15:22N 32°00' E 120°49'53462.5
2016-Jun-23 15:15N 31°21' E 121°30'0 0.0
2016-Jun-23 14:33N 31°21' E 121°30'1525.8
2016-Jun-23 14:33N 31°23' E 121°30'6589584.3
2016-Jun-23 14:29N 23°02' E 113°31'61411050.3
2016-Jun-23 14:26N 29°54' E 121°59'95107.0
2016-Jun-23 13:32N 31°26' E 121°29'660263819.8
2016-Jun-23 13:32N 23°02' E 113°31'659673.7
2016-Jun-23 12:33N 31°30' E 121°23'65917976.3
2016-Jun-23 12:31N 23°02' E 113°31'6575711.9
2016-Jun-23 12:24N 31°21' E 121°30'1719.5
2016-Jun-23 11:32N 31°34' E 121°18'660182684.5
2016-Jun-23 11:32N 23°02' E 113°31'657147796.5
2016-Jun-23 11:32N 31°21' E 121°30'71388.2
2016-Jun-23 11:21N 31°57' E 120°19'5514679.6
2016-Jun-23 11:14N 23°21' E 116°40'0 0.0
2016-Jun-23 10:34N 23°21' E 116°40'17526210.0
2016-Jun-23 10:33N 23°02' E 113°31'657107492.7
2016-Jun-23 10:33N 31°21' E 121°30'242674.4
2016-Jun-23 10:32N 31°40' E 121°12'2424.1
2016-Jun-23 09:33N 31°25' E 121°34'661125300.1
2016-Jun-23 09:33N 23°02' E 113°31'66030461.4
2016-Jun-23 09:32N 31°43' E 121°06'55573966.0
2016-Jun-23 09:31N 23°21' E 116°40'5031155.5
2016-Jun-23 09:05N 30°20' E 121°53'503948.6
2016-Jun-23 08:33N 23°21' E 116°40'17517972.6
2016-Jun-23 08:33N 23°02' E 113°31'6593088.9
2016-Jun-23 08:20N 31°44' E 121°03'33791.0
2016-Jun-23 08:17N 31°25' E 121°34'3713807.6
2016-Jun-23 08:12N 37°27' E 119°55'9261426.5
2016-Jun-23 07:33N 23°02' E 113°31'17518500.9
2016-Jun-23 07:32N 23°21' E 116°40'54927082.9
2016-Jun-23 07:31N 31°25' E 121°34'33239.7
2016-Jun-23 07:23N 31°44' E 121°03'659361.8
2016-Jun-23 05:33N 23°02' E 113°31'649116794.5
2016-Jun-23 05:33N 30°44' E 122°01'52767783.1
2016-Jun-23 05:33N 23°21' E 116°40'175176.0
2016-Jun-23 04:33N 23°02' E 113°31'17513104.6
2016-Jun-23 04:32N 23°21' E 116°40'54932950.2
2016-Jun-23 04:31N 31°25' E 121°34'549570.6
2016-Jun-23 03:33N 23°21' E 116°40'175125804.4
2016-Jun-23 03:33N 23°02' E 113°31'66120700.7
2016-Jun-23 03:31N 31°25' E 121°34'661671.3
2016-Jun-23 02:32N 23°02' E 113°31'1754111.2
2016-Jun-23 02:30N 23°21' E 116°40'54918652.6
2016-Jun-23 02:28N 31°25' E 121°34'54211.5
2016-Jun-23 02:13N 32°00' E 120°46'5478.8
2016-Jun-23 01:32N 31°25' E 121°34'54998859.0
2016-Jun-23 01:31N 23°21' E 116°40'175181.6
2016-Jun-23 00:33N 23°02' E 113°31'1751021.1
2016-Jun-23 00:23N 23°21' E 116°40'175211.0
2016-Jun-22 23:34N 23°02' E 113°31'66113147.9
2016-Jun-22 23:31N 31°22' E 121°37'3818.6
2016-Jun-22 23:30N 31°25' E 121°34'5491499.0
2016-Jun-22 23:08N 23°21' E 116°40'0 0.9
2016-Jun-22 22:33N 23°21' E 116°39'550141355.7
2016-Jun-22 22:33N 31°25' E 121°34'66199201.2
2016-Jun-22 22:33N 23°02' E 113°31'64668359.2
2016-Jun-22 22:32N 31°57' E 120°18'542116154.4
2016-Jun-22 22:12N 49°18' W 122°54'60249339.5
2016-Jun-22 21:33N 23°18' E 116°47'549164710.3
2016-Jun-22 21:33N 31°25' E 121°34'661132262.2
2016-Jun-22 21:33N 23°02' E 113°31'614736692.2
2016-Jun-22 21:33N 29°54' E 121°59'54491401066.0
2016-Jun-22 21:33N 49°18' W 122°53'53915455.1
2016-Jun-22 20:33N 31°25' E 121°34'66136628.4
2016-Jun-22 20:32N 23°02' E 113°31'6181342331.2
2016-Jun-22 20:31N 49°17' W 123°07'2 2.4
2016-Jun-22 19:33N 49°19' W 123°09'1 1.4
2016-Jun-22 18:33N 49°19' W 123°07'618071542.2
2016-Jun-22 18:28N 23°02' E 113°31'93413086.5
2016-Jun-22 18:24N 37°36' E 119°51'3811698.1
2016-Jun-22 18:10N 31°25' E 121°34'388631.9
2016-Jun-22 17:34N 37°43' E 119°48'48144436.0
2016-Jun-22 17:33N 29°54' E 121°59'61421457.6
2016-Jun-22 17:31N 23°02' E 113°31'66136072.4
2016-Jun-22 17:30N 31°25' E 121°34'661697.8
2016-Jun-22 16:33N 23°02' E 113°31'61426311.1
2016-Jun-22 16:32N 29°54' E 121°59'4915275.6
2016-Jun-22 16:26N 37°51' E 119°41'8 9.5
2016-Jun-22 15:33N 37°57' E 119°34'94894832.7
2016-Jun-22 15:33N 23°02' E 113°31'66130919.0
2016-Jun-22 15:31N 31°25' E 121°34'661679.8
2016-Jun-22 14:33N 23°02' E 113°31'66114517.8
2016-Jun-22 14:30N 31°25' E 121°34'423446.6
2016-Jun-22 13:34N 38°12' E 119°16'95753030.6
2016-Jun-22 13:32N 23°02' E 113°31'0 0.0
2016-Jun-22 12:30N 23°02' E 113°31'661216451.8
2016-Jun-22 12:29N 31°25' E 121°34'4341314.2
2016-Jun-22 12:10N 38°20' E 118°60'434698.5
2016-Jun-22 11:32N 31°25' E 121°34'4392802.3
2016-Jun-22 11:23N 38°23' E 118°50'1011.8
2016-Jun-22 10:34N 38°24' E 118°38'4446490.3
2016-Jun-22 10:29N 31°25' E 121°34'66125601.6
2016-Jun-22 10:28N 23°02' E 113°31'0 0.1
2016-Jun-22 09:33N 23°02' E 113°31'66115164.5
2016-Jun-22 09:31N 31°25' E 121°34'2020.9
2016-Jun-22 08:33N 31°11' E 121°51'6612379690.7
2016-Jun-22 08:33N 23°02' E 113°31'66116766.5
2016-Jun-22 08:31N 31°25' E 121°34'661688.5
2016-Jun-22 07:33N 23°02' E 113°31'66118746.9
2016-Jun-22 07:31N 31°25' E 121°34'835.1
2016-Jun-22 07:18N 31°20' E 121°41'6 8.1
2016-Jun-22 06:33N 31°23' E 121°35'66141725.7
2016-Jun-22 06:32N 23°02' E 113°31'66129392.7
2016-Jun-22 06:31N 31°25' E 121°34'661680.4
2016-Jun-22 05:33N 23°02' E 113°31'0 0.1
2016-Jun-22 04:31N 23°02' E 113°31'66120882.9
2016-Jun-22 04:29N 31°25' E 121°34'343.5
2016-Jun-22 04:25N 31°23' E 121°36'661769.8
2016-Jun-22 03:34N 23°02' E 113°31'661396790.4
2016-Jun-22 03:33N 31°25' E 121°34'0 0.0
2016-Jun-22 02:33N 31°25' E 121°34'66217774.3
2016-Jun-22 02:31N 23°01' E 113°32'662669.0
2016-Jun-22 01:32N 31°25' E 121°34'6626437.1
2016-Jun-22 01:26N 23°01' E 113°32'0 0.1
2016-Jun-22 00:33N 23°01' E 113°32'66214260.2
2016-Jun-22 00:31N 31°25' E 121°34'662666.3
2016-Jun-21 23:31N 23°01' E 113°32'66230145.3
2016-Jun-21 23:30N 31°25' E 121°34'95245.5
2016-Jun-21 23:07N 29°53' E 122°04'95170.7
2016-Jun-21 22:33N 31°25' E 121°34'662396937.8
2016-Jun-21 22:33N 23°01' E 113°32'6174287.3
2016-Jun-21 22:25N 29°53' E 122°04'617725.5
2016-Jun-21 21:33N 23°01' E 113°32'66215267.0
2016-Jun-21 21:31N 31°25' E 121°34'9514212.4
2016-Jun-21 21:30N 29°53' E 122°04'617645.0
2016-Jun-21 20:33N 23°01' E 113°32'66244104.2
2016-Jun-21 20:32N 31°25' E 121°34'483.1
2016-Jun-21 20:29N 31°21' E 121°31'93409.6
2016-Jun-21 20:16N 29°53' E 122°04'95134.8
2016-Jun-21 19:33N 31°25' E 121°34'66239043.1
2016-Jun-21 19:32N 23°01' E 113°32'0 0.0
2016-Jun-21 18:33N 23°01' E 113°32'66282125.6
2016-Jun-21 18:32N 31°25' E 121°34'662661.2
2016-Jun-21 17:32N 23°01' E 113°32'66211732.5
2016-Jun-21 17:29N 31°25' E 121°34'428.1
2016-Jun-21 17:20N 31°21' E 121°31'657845.8
2016-Jun-21 16:33N 23°01' E 113°32'660125084.6
2016-Jun-21 16:33N 31°24' E 121°32'3145.7
2016-Jun-21 16:32N 31°21' E 121°31'657670.2
2016-Jun-21 15:33N 23°01' E 113°32'0 0.0
2016-Jun-21 14:33N 23°01' E 113°32'6578998.4
2016-Jun-21 14:29N 31°21' E 121°31'117.7
2016-Jun-21 14:26N 31°21' E 121°31'1 7.0
2016-Jun-21 14:19N 31°21' E 121°31'0 0.1
2016-Jun-21 13:33N 31°21' E 121°31'0 2.4
2016-Jun-21 13:25N 31°21' E 121°31'0 0.4
2016-Jun-21 12:33N 31°21' E 121°31'011.2
2016-Jun-21 12:31N 31°21' E 121°31'916162.8
2016-Jun-21 12:31N 29°54' E 121°59'9082.3
2016-Jun-21 11:25N 31°21' E 121°31'0 1.6
2016-Jun-21 11:13N 31°21' E 121°31'0 0.4
2016-Jun-21 10:32N 31°21' E 121°30'513.6
2016-Jun-21 10:11N 31°26' E 121°28'5 7.3
2016-Jun-21 09:32N 31°21' E 121°30'91727.2
2016-Jun-21 09:25N 29°54' E 121°59'952725.5
2016-Jun-21 09:22N 31°26' E 121°28'0 0.0
2016-Jun-21 08:28N 31°26' E 121°28'95601.5
2016-Jun-21 08:19N 29°54' E 121°59'91117.9
2016-Jun-21 07:32N 31°21' E 121°30'0 0.1
2016-Jun-21 05:33N 31°21' E 121°30'0 0.0
2016-Jun-21 04:31N 31°21' E 121°30'0 0.0
2016-Jun-21 02:29N 31°21' E 121°30'610522220.9
2016-Jun-21 02:13N 33°37' W 117°55'61058136.4
2016-Jun-21 01:28N 31°21' E 121°30'0 0.0
2016-Jun-21 00:33N 31°21' E 121°30'0 0.0
2016-Jun-20 23:30N 31°21' E 121°30'0 0.0
2016-Jun-20 22:25N 31°21' E 121°30'2 0.6
2016-Jun-20 19:33N 31°23' E 121°30'100496.5
2016-Jun-20 19:21N 29°48' E 122°04'7 9.1
2016-Jun-20 18:33N 29°54' E 122°08'956009.8
2016-Jun-20 18:32N 31°25' E 121°34'763.3
2016-Jun-20 18:25N 31°20' E 121°41'87762.1
2016-Jun-20 18:19N 29°54' E 121°59'92116.8
2016-Jun-20 17:31N 31°23' E 121°34'1326.4
2016-Jun-20 17:31N 31°25' E 121°34'876687.6
2016-Jun-20 17:30N 30°00' E 122°01'666.2
2016-Jun-20 17:25N 29°54' E 121°59'1431683.0
2016-Jun-20 17:19N 32°02' E 120°44'5570.6
2016-Jun-20 16:33N 31°24' E 121°31'3102.8
2016-Jun-20 16:31N 31°25' E 121°34'610056017.1
2016-Jun-20 16:25N 33°37' W 117°55'61027122.4
2016-Jun-20 15:33N 31°25' E 121°32'155.9
2016-Jun-20 15:32N 31°24' E 121°31'530.3
2016-Jun-20 15:22N 31°24' E 121°36'911.3
2016-Jun-20 14:34N 31°28' E 121°27'5224.5
2016-Jun-20 14:32N 31°24' E 121°31'6623449.3
2016-Jun-20 14:21N 22°57' E 113°32'662834.8
2016-Jun-20 13:33N 31°32' E 121°20'660475280.6
2016-Jun-20 13:33N 23°01' E 113°31'660395994.2
2016-Jun-20 13:33N 31°24' E 121°31'0 0.1
2016-Jun-20 12:33N 31°24' E 121°31'659197768.5
2016-Jun-20 12:33N 23°01' E 113°32'657663.1
2016-Jun-20 11:33N 31°22' E 121°30'657181985.2
2016-Jun-20 11:33N 23°01' E 113°32'0 0.0
2016-Jun-20 10:27N 23°01' E 113°32'6604106.1
2016-Jun-20 10:17N 31°39' E 121°13'112137.9
2016-Jun-20 09:29N 29°54' E 121°59'61415135.3
2016-Jun-20 09:26N 23°01' E 113°32'0 0.0
2016-Jun-20 08:32N 23°01' E 113°32'66017742.1
2016-Jun-20 08:30N 31°39' E 121°13'660681.0
2016-Jun-20 07:32N 23°01' E 113°32'6608114.2
2016-Jun-20 07:27N 31°39' E 121°13'1 1.4
2016-Jun-20 06:32N 31°40' E 121°12'66133490.7
2016-Jun-20 06:31N 23°01' E 113°32'0 0.0
2016-Jun-20 05:25N 23°01' E 113°32'0 0.0
2016-Jun-20 04:34N 23°01' E 113°32'6612174.3
2016-Jun-20 04:15N 31°21' E 121°38'4 5.3
2016-Jun-20 03:28N 31°23' E 121°34'92977.0
2016-Jun-20 03:23N 29°54' E 121°59'61450221.6
2016-Jun-20 03:22N 23°01' E 113°32'660814.3
2016-Jun-20 02:33N 31°26' E 121°29'6602375313.8
2016-Jun-20 02:33N 23°01' E 113°32'6147920.2
2016-Jun-20 02:29N 29°54' E 121°59'101109.9
2016-Jun-20 01:33N 31°30' E 121°23'46034522.9
2016-Jun-20 01:33N 24°26' E 118°02'2611429.3
2016-Jun-20 01:22N 23°01' E 113°32'0 0.0
2016-Jun-20 00:33N 23°01' E 113°32'6141630.8
2016-Jun-20 00:11N 29°54' E 121°59'951424.6
2016-Jun-20 00:07N 31°26' E 121°28'6591130.5
2016-Jun-19 23:32N 23°01' E 113°32'66016840.0
2016-Jun-19 23:29N 31°25' E 121°30'94850.6
2016-Jun-19 23:23N 29°54' E 121°59'614703.4
2016-Jun-19 22:30N 23°01' E 113°32'0 0.0
2016-Jun-19 21:31N 23°01' E 113°32'682143846.2
2016-Jun-19 21:22N 33°37' W 117°55'613269196.8
2016-Jun-19 21:17N 29°54' E 121°59'614839.4
2016-Jun-19 20:33N 23°01' E 113°32'6627025.3
2016-Jun-19 20:27N 32°01' E 120°43'662672.6
2016-Jun-19 19:28N 23°01' E 113°32'6821132010.0
2016-Jun-19 19:25N 33°37' W 117°55'68217936.0
2016-Jun-19 18:33N 23°01' E 113°32'0 0.0
2016-Jun-19 17:33N 23°01' E 113°32'6433501.2
2016-Jun-19 17:22N 31°57' E 120°12'643787.2
2016-Jun-19 16:33N 23°01' E 113°32'6443912.1
2016-Jun-19 16:23N 31°57' E 120°15'428.1
2016-Jun-19 16:14N 31°55' E 120°11'0 0.0
2016-Jun-19 15:31N 31°55' E 120°11'64116254.0
2016-Jun-19 15:28N 23°01' E 113°32'6146676.9
2016-Jun-19 15:23N 29°54' E 121°59'614743.4
2016-Jun-19 14:33N 23°01' E 113°32'6148308.5
2016-Jun-19 14:29N 29°54' E 121°59'614663.1
2016-Jun-19 13:33N 23°01' E 113°32'0 0.0
2016-Jun-19 12:33N 23°01' E 113°32'6148246.5
2016-Jun-19 12:29N 29°54' E 121°59'1536049.7
2016-Jun-19 12:27N 31°55' E 120°11'641700.1
2016-Jun-19 11:32N 23°01' E 113°32'6612133.6
2016-Jun-19 11:14N 31°27' E 121°29'661980.6
2016-Jun-19 10:33N 23°01' E 113°31'66019016.8
2016-Jun-19 10:31N 31°25' E 121°31'4 4.6
2016-Jun-19 09:33N 31°21' E 121°31'657473084.1
2016-Jun-19 09:33N 23°01' E 113°31'6642799.3
2016-Jun-19 09:19N 32°00' E 120°49'64288.3
2016-Jun-19 09:05N 31°17' E 121°44'610.3
2016-Jun-19 08:33N 31°20' E 121°39'66239049.9
2016-Jun-19 08:32N 23°02' E 113°31'6524286.3
2016-Jun-19 08:22N 31°15' E 121°31'652788.2
2016-Jun-19 07:33N 23°02' E 113°31'6636399.3
2016-Jun-19 07:27N 32°01' E 120°46'4741328.0
2016-Jun-19 07:05N 24°29' E 118°04'3 5.0
2016-Jun-19 06:33N 24°26' E 118°03'26335115.9
2016-Jun-19 06:32N 23°02' E 113°31'266256.2
2016-Jun-19 05:30N 24°23' E 118°08'6 5.6
2016-Jun-19 04:31N 24°18' E 118°10'840840.5
2016-Jun-19 03:31N 38°18' E 118°13'8465992.1
2016-Jun-19 03:22N 24°12' E 118°05'2591169.8
2016-Jun-19 03:09N 22°59' E 113°34'9501489.8
2016-Jun-19 02:31N 38°18' E 118°13'421427.3
2016-Jun-19 01:32N 31°42' E 121°09'6634728.8
2016-Jun-19 01:23N 22°57' E 113°32'3 3.9
2016-Jun-19 00:31N 23°01' E 113°32'1 1.4
2016-Jun-18 23:33N 23°02' E 113°31'230231.2
2016-Jun-18 22:33N 23°44' E 117°37'4371895.0
2016-Jun-18 22:19N 29°54' E 121°59'6143571.1
2016-Jun-18 22:09N 23°02' E 113°31'0 0.0
2016-Jun-18 21:33N 23°02' E 113°31'61421460.8
2016-Jun-18 21:31N 29°54' E 121°59'614472.5
2016-Jun-18 20:13N 23°02' E 113°31'0 0.0
2016-Jun-18 19:31N 23°02' E 113°31'0 0.0
2016-Jun-18 18:33N 23°02' E 113°31'0 0.0
2016-Jun-18 17:33N 23°02' E 113°31'6144634.0
2016-Jun-18 17:25N 29°54' E 121°59'614703.3
2016-Jun-18 16:33N 23°02' E 113°31'61423267.0
2016-Jun-18 16:31N 29°54' E 121°59'614635.9
2016-Jun-18 15:34N 23°02' E 113°31'61417825.4
2016-Jun-18 15:31N 29°54' E 121°59'614635.9
2016-Jun-18 14:34N 23°02' E 113°31'61417825.4
2016-Jun-18 14:31N 29°54' E 121°59'614636.1
2016-Jun-18 13:34N 23°02' E 113°31'0 0.0
2016-Jun-18 12:22N 23°02' E 113°31'0 0.0
2016-Jun-18 11:23N 23°02' E 113°31'0 0.0
2016-Jun-18 10:33N 23°02' E 113°31'6144733.3
2016-Jun-18 10:25N 29°54' E 121°59'614640.0
2016-Jun-18 09:28N 23°02' E 113°31'61415140.3
2016-Jun-18 09:25N 29°54' E 121°59'614562.6
2016-Jun-18 08:20N 23°02' E 113°31'61410627.3
2016-Jun-18 08:16N 29°54' E 121°59'614753.9
2016-Jun-18 07:28N 23°02' E 113°31'6142150.3
2016-Jun-18 07:10N 29°54' E 121°59'614909.7
2016-Jun-18 06:30N 23°02' E 113°31'0 0.0
2016-Jun-18 05:22N 23°02' E 113°31'0 0.0
2016-Jun-18 04:23N 23°02' E 113°31'0 0.0
2016-Jun-18 03:33N 23°02' E 113°31'0 0.0
2016-Jun-18 02:32N 23°02' E 113°31'6373624.1
2016-Jun-18 02:22N 31°11' E 121°09'637774.5
2016-Jun-18 01:33N 23°02' E 113°31'6141887.6
2016-Jun-18 01:13N 29°54' E 121°59'614917.5
2016-Jun-18 00:33N 23°02' E 113°31'6621781.3
2016-Jun-18 00:11N 31°23' E 121°37'6621063.5
2016-Jun-17 23:33N 23°02' E 113°31'662662.2
2016-Jun-17 22:33N 31°23' E 121°37'6624005.6
2016-Jun-17 22:23N 23°02' E 113°31'662798.2
2016-Jun-17 21:34N 31°23' E 121°37'6626389.7
2016-Jun-17 21:27N 23°02' E 113°31'6144447.7
2016-Jun-17 21:19N 29°54' E 121°59'91114.6
2016-Jun-17 20:31N 31°23' E 121°37'91885.8
2016-Jun-17 20:25N 29°54' E 121°59'61426315.3
2016-Jun-17 20:24N 23°02' E 113°31'662787.6
2016-Jun-17 19:33N 31°23' E 121°37'912489.8
2016-Jun-17 19:31N 29°54' E 121°59'9192.1
2016-Jun-17 18:32N 31°23' E 121°37'6622427.0
2016-Jun-17 18:15N 23°02' E 113°31'0 0.0
2016-Jun-17 17:22N 23°02' E 113°31'662125441.5
2016-Jun-17 17:22N 31°23' E 121°37'0 0.1
2016-Jun-17 16:33N 31°23' E 121°36'6628421.5
2016-Jun-17 16:28N 23°02' E 113°31'6144186.3
2016-Jun-17 16:19N 29°54' E 121°59'614809.4
2016-Jun-17 15:34N 23°02' E 113°31'66230554.4
2016-Jun-17 15:32N 31°23' E 121°36'914504.6
2016-Jun-17 15:31N 29°54' E 121°59'614628.3
2016-Jun-17 14:32N 23°02' E 113°31'66218474.5
2016-Jun-17 14:30N 31°23' E 121°36'1 1.4
2016-Jun-17 13:33N 31°22' E 121°38'6621907.7
2016-Jun-17 13:12N 23°01' E 113°32'  

Dump ship's entire track history